createdAt,value
2022-10-17T00:02:15.448Z,7.28
2022-10-17T00:04:45.561Z,8.70
2022-10-17T00:07:15.395Z,7.97
2022-10-17T00:09:48.104Z,6.82
2022-10-17T00:12:17.966Z,6.55
2022-10-17T00:14:48.204Z,4.53
2022-10-17T00:17:18.046Z,3.00
2022-10-17T00:19:48.195Z,4.78
2022-10-17T00:22:18.083Z,5.30
2022-10-17T00:24:50.786Z,5.35
2022-10-17T00:27:20.646Z,6.18
2022-10-17T00:29:51.737Z,6.13
2022-10-17T00:32:22.465Z,6.75
2022-10-17T00:34:52.503Z,6.20
2022-10-17T00:37:22.239Z,6.28
2022-10-17T00:39:54.969Z,4.68
2022-10-17T00:42:25.296Z,6.35
2022-10-17T00:45:10.623Z,6.53
2022-10-17T00:47:40.616Z,5.60
2022-10-17T00:50:12.438Z,5.80
2022-10-17T00:52:43.663Z,5.55
2022-10-17T00:55:21.077Z,5.10
2022-10-17T00:57:52.367Z,5.85
2022-10-17T01:00:22.768Z,5.00
2022-10-17T01:02:52.662Z,7.55
2022-10-17T01:05:23.414Z,6.20
2022-10-17T01:07:55.974Z,5.05
2022-10-17T01:10:34.683Z,4.55
2022-10-17T01:13:15.796Z,4.45
2022-10-17T01:15:55.584Z,4.57
2022-10-17T01:18:35.370Z,4.35
2022-10-17T01:21:37.262Z,3.97
2022-10-17T01:24:39.728Z,4.43
2022-10-17T01:27:38.943Z,3.97
2022-10-17T01:30:39.962Z,4.00
2022-10-17T01:33:17.365Z,4.40
2022-10-17T01:35:55.875Z,3.90
2022-10-17T01:38:30.266Z,3.80
2022-10-17T01:41:05.914Z,4.20
2022-10-17T01:43:43.489Z,3.70
2022-10-17T01:46:18.096Z,4.43
2022-10-17T01:48:50.848Z,3.80
2022-10-17T01:51:25.816Z,4.10
2022-10-17T01:53:59.725Z,4.28
2022-10-17T01:56:32.857Z,4.40
2022-10-17T01:59:07.640Z,3.97
2022-10-17T02:01:41.007Z,4.25
2022-10-17T02:04:16.456Z,4.15
2022-10-17T02:06:46.281Z,4.03
2022-10-17T02:09:25.108Z,5.25
2022-10-17T02:12:23.638Z,4.10
2022-10-17T02:15:08.121Z,4.25
2022-10-17T02:17:51.219Z,4.05
2022-10-17T02:20:30.898Z,3.67
2022-10-17T02:23:06.116Z,4.10
2022-10-17T02:25:41.638Z,4.15
2022-10-17T02:28:22.451Z,4.50
2022-10-17T02:30:56.924Z,3.50
2022-10-17T02:33:31.193Z,4.10
2022-10-17T02:36:08.873Z,4.60
2022-10-17T02:38:38.724Z,3.92
2022-10-17T02:41:13.209Z,4.63
2022-10-17T02:43:45.384Z,3.88
2022-10-17T02:46:21.287Z,4.40
2022-10-17T02:48:54.748Z,4.05
2022-10-17T02:51:35.449Z,4.20
2022-10-17T02:54:12.246Z,4.20
2022-10-17T02:56:46.726Z,4.75
2022-10-17T02:59:20.201Z,4.60
2022-10-17T03:01:51.942Z,4.43
2022-10-17T03:04:22.177Z,4.57
2022-10-17T03:06:54.977Z,4.40
2022-10-17T03:09:24.806Z,4.40
2022-10-17T03:11:55.053Z,4.60
2022-10-17T03:14:25.133Z,4.80
2022-10-17T03:16:55.567Z,4.65
2022-10-17T03:19:26.019Z,4.80
2022-10-17T03:21:58.962Z,4.75
2022-10-17T03:24:29.136Z,5.03
2022-10-17T03:26:59.744Z,4.88
2022-10-17T03:29:29.865Z,5.45
2022-10-17T03:31:59.837Z,4.93
2022-10-17T03:34:29.569Z,4.97
2022-10-17T03:37:02.164Z,4.78
2022-10-17T03:39:31.968Z,4.63
2022-10-17T03:42:02.102Z,5.03
2022-10-17T03:44:31.911Z,4.75
2022-10-17T03:47:02.292Z,5.10
2022-10-17T03:49:32.097Z,5.07
2022-10-17T03:52:04.852Z,5.20
2022-10-17T03:54:34.639Z,5.32
2022-10-17T03:57:04.785Z,5.32
2022-10-17T03:59:34.780Z,4.80
2022-10-17T04:02:04.828Z,5.60
2022-10-17T04:04:34.605Z,5.00
2022-10-17T04:07:07.410Z,4.93
2022-10-17T04:09:37.112Z,5.53
2022-10-17T04:12:07.614Z,5.20
2022-10-17T04:14:37.389Z,5.50
2022-10-17T04:17:07.497Z,5.60
2022-10-17T04:19:37.494Z,5.25
2022-10-17T04:22:10.282Z,5.13
2022-10-17T04:24:40.278Z,5.40
2022-10-17T04:27:10.379Z,5.03
2022-10-17T04:29:40.466Z,5.10
2022-10-17T04:32:11.021Z,5.45
2022-10-17T04:34:40.723Z,5.10
2022-10-17T04:37:13.382Z,4.78
2022-10-17T04:39:43.107Z,4.88
2022-10-17T04:42:13.189Z,4.97
2022-10-17T04:44:42.957Z,5.40
2022-10-17T04:47:12.970Z,6.75
2022-10-17T04:49:42.767Z,5.65
2022-10-17T04:52:15.437Z,5.72
2022-10-17T04:54:45.269Z,7.13
2022-10-17T04:57:15.342Z,6.03
2022-10-17T04:59:45.416Z,6.15
2022-10-17T05:02:15.505Z,6.22
2022-10-17T05:04:45.281Z,5.78
2022-10-17T05:07:18.007Z,6.53
2022-10-17T05:09:47.869Z,5.93
2022-10-17T05:12:17.955Z,5.95
2022-10-17T05:14:47.795Z,6.25
2022-10-17T05:17:17.892Z,6.20
2022-10-17T05:19:47.613Z,6.60
2022-10-17T05:22:20.328Z,6.88
2022-10-17T05:24:50.535Z,6.15
2022-10-17T05:27:20.931Z,5.97
2022-10-17T05:29:51.024Z,5.88
2022-10-17T05:32:23.589Z,6.13
2022-10-17T05:34:53.635Z,5.43
2022-10-17T05:37:26.555Z,5.35
2022-10-17T05:39:56.272Z,6.43
2022-10-17T05:42:26.693Z,6.75
2022-10-17T05:44:56.597Z,6.45
2022-10-17T05:47:26.851Z,5.53
2022-10-17T05:49:56.744Z,5.57
2022-10-17T05:52:30.579Z,5.80
2022-10-17T05:55:03.416Z,5.72
2022-10-17T05:57:33.567Z,6.13
2022-10-17T06:00:06.833Z,5.32
2022-10-17T06:02:37.087Z,6.53
2022-10-17T06:05:07.399Z,6.15
2022-10-17T06:07:44.802Z,5.45
2022-10-17T06:10:16.556Z,5.72
2022-10-17T06:12:47.345Z,5.22
2022-10-17T06:15:17.399Z,5.72
2022-10-17T06:18:06.544Z,5.88
2022-10-17T06:20:43.895Z,5.82
2022-10-17T06:23:25.273Z,5.65
2022-10-17T06:25:55.243Z,6.00
2022-10-17T06:28:28.039Z,5.80
2022-10-17T06:30:57.997Z,6.40
2022-10-17T06:33:31.528Z,6.63
2022-10-17T06:36:01.752Z,5.90
2022-10-17T06:38:34.949Z,5.88
2022-10-17T06:41:09.100Z,6.38
2022-10-17T06:43:40.433Z,6.55
2022-10-17T06:46:10.801Z,5.80
2022-10-17T06:48:46.154Z,6.25
2022-10-17T06:51:16.155Z,6.55
2022-10-17T06:53:49.373Z,6.43
2022-10-17T06:56:21.875Z,6.97
2022-10-17T06:58:53.002Z,6.55
2022-10-17T07:01:23.061Z,6.82
2022-10-17T07:03:53.255Z,7.35
2022-10-17T07:06:24.397Z,7.00
2022-10-17T07:13:02.126Z,6.88
2022-10-17T07:15:36.797Z,6.30
2022-10-17T07:18:11.753Z,6.40
2022-10-17T07:21:22.025Z,6.32
2022-10-17T07:24:07.771Z,7.00
2022-10-17T07:26:56.828Z,6.38
2022-10-17T07:29:56.341Z,6.47
2022-10-17T07:32:39.721Z,6.47
2022-10-17T07:35:19.845Z,6.32
2022-10-17T07:41:57.649Z,6.18
2022-10-17T07:44:58.923Z,6.55
2022-10-17T07:47:52.928Z,5.82
2022-10-17T07:51:17.588Z,6.05
2022-10-17T07:54:21.670Z,5.53
2022-10-17T07:56:57.939Z,5.40
2022-10-17T07:59:44.447Z,5.30
2022-10-17T08:02:36.032Z,5.03
2022-10-17T08:05:29.137Z,5.38
2022-10-17T08:08:12.568Z,5.15
2022-10-17T08:10:42.968Z,5.43
2022-10-17T08:13:12.732Z,5.00
2022-10-17T08:15:42.743Z,4.72
2022-10-17T08:18:15.075Z,4.78
2022-10-17T08:24:20.394Z,4.57
2022-10-17T08:30:47.031Z,3.83
2022-10-17T08:33:19.854Z,4.20
2022-10-17T08:35:49.548Z,4.35
2022-10-17T08:38:21.100Z,4.13
2022-10-17T08:40:55.065Z,3.78
2022-10-17T08:43:42.130Z,4.05
2022-10-17T08:46:12.534Z,4.18
2022-10-17T08:48:47.588Z,3.80
2022-10-17T08:51:21.691Z,3.70
2022-10-17T08:54:00.607Z,3.78
2022-10-17T08:56:48.061Z,3.85
2022-10-17T08:59:22.883Z,3.72
2022-10-17T09:01:58.750Z,3.22
2022-10-17T09:04:48.314Z,3.47
2022-10-17T09:07:31.053Z,4.15
2022-10-17T09:10:12.357Z,3.30
2022-10-17T09:12:51.737Z,3.65
2022-10-17T09:15:40.385Z,3.45
2022-10-17T09:18:18.744Z,3.33
2022-10-17T09:20:58.162Z,3.47
2022-10-17T09:23:31.477Z,3.25
2022-10-17T09:29:17.980Z,3.28
2022-10-17T09:34:32.073Z,3.13
2022-10-17T09:37:07.952Z,3.50
2022-10-17T09:39:39.266Z,3.10
2022-10-17T09:42:22.037Z,3.75
2022-10-17T09:45:16.929Z,3.10
2022-10-17T09:47:52.832Z,3.20
2022-10-17T09:50:28.195Z,3.92
2022-10-17T09:53:08.556Z,3.70
2022-10-17T09:55:42.805Z,3.45
2022-10-17T09:58:14.801Z,3.08
2022-10-17T10:00:46.808Z,3.00
2022-10-17T11:29:38.317Z,3.20
2022-10-17T12:16:28.748Z,3.30
2022-10-17T12:41:01.835Z,2.67
2022-10-17T13:29:29.215Z,3.15
2022-10-17T17:03:14.984Z,3.38
2022-10-17T17:10:46.506Z,3.42
2022-10-17T20:03:20.699Z,7.22
2022-10-17T20:10:57.515Z,7.60
2022-10-17T20:22:31.644Z,9.27
2022-10-17T20:30:07.027Z,9.43
2022-10-17T20:42:14.372Z,11.55
2022-10-17T20:57:16.652Z,10.95
2022-10-17T21:00:27.863Z,10.45
2022-10-17T21:11:18.811Z,11.90
2022-10-17T21:15:02.518Z,10.88
2022-10-17T21:22:24.894Z,11.63
2022-10-17T21:45:33.827Z,12.27
2022-10-17T21:49:04.000Z,12.00
2022-10-17T21:52:27.689Z,11.82
2022-10-17T21:57:06.527Z,13.60
2022-10-17T22:08:20.749Z,16.20
2022-10-17T23:23:27.360Z,17.65
2022-10-17T23:26:34.867Z,14.65
2022-10-17T23:30:20.291Z,14.73
